Azucena, Louisiana
Current Conditions -  °F | °C
As of 2:55 PM on Tuesday 21 Oct 2014 (Local Time) from KHEZ Reporting Station
Clear Clear  
Wind Chill: 75°   Ceiling: Unl
Heat Index: 75°   Visibility: 10mi
Dew Point: 57°   Wind: 6mph
Humidity: 53%   Direction: 20°NNE
Pressure: 30.03"   Gusts: NA
Location:  31.835°N, 91.3655°W
Report Text: KHEZ 211955Z AUTO 02005KT 10SM CLR 24/14 A3003 RMK AO1
Loading
Personal Weather Stations






























Interactive Weather Map
Tropical Storm Tracking
New forecast layout! Learn more

10-Day Weather Forecast

Advertisements
Track Severe Weather on mobile